Portada
METAR-TAF:

METAR-TAF

Aeroports :

Sønderborg, Dinamarca

latitud: 54-58N, longitud: 009-47E, altitud: 7 m

Observació

L'informe es va fer fa 10 minuts, a les 07:50 UTC
Vent 10 kt del Oest/Nord-Oest, variant entre Oest/Sud-Oest i Nord-Oest
Temperatura 15°C
Humitat 72%
Pressió 1013 hPa
Visibilitat 10 km o més
Núvols disperses a una alçada de 2000 ft
Cel ennuvolat a una alçada de 3000 ft

METAR: EKSB 220750Z 29010KT 250V320 9999 SCT020 BKN030 15/10 Q1013

Hora: 10:00 (08:00 UTC)

Pronòstic

L'informe es va fer fa 2 hores i 2 minuts, a les 05:58 UTC
Pronòstic vàlid del 22 a les 06 UTC al 22 a les 15 UTC
Vent 10 kt del Oest/Nord-Oest
Visibilitat 10 km o més
Núvols disperses a una alçada de 2000 ft

TAF: EKSB 220558Z 2206/2215 29010KT 9999 SCT020

Observacions i pronòstics meteorològics de més de 4000 aeroports (METAR i TAF).

Les estacions disponibles són els punts grocs i vermells al mapa.

Posi el ratolí al punt desitjat per veure el nom de l'estació.

Feu clic per veure les observacions i els pronòstics meteorològics.

Per canviar el mapa: feu clic els botons verds amb una creu de color negre per apropar; al botó verd amb un guió per allunyar la imatge; o en les fletxes verdes per a mapes adjacents.


METAR-TAF: